Time;durP1;ratioP1;P1;durP2;ratioP2;P2;SDS_P1;SDS_P2;PMS_P1;PMS_P2;Temp;Humidity;BMP_temperature;BMP_pressure;BME280_temperature;BME280_humidity;BME280_pressure;Samples;Min_cycle;Max_cycle;Signal;HPM_P1;HPM_P2
2024/01/28 00:01:51;;;;;;;10.90;5.70;;;;;;;-0.20;76.08;99790.38;104844;1270;61126;-27
2024/01/28 00:04:19;;;;;;;6.70;4.40;;;;;;;-0.29;76.67;99792.98;104905;1267;72758;-28
2024/01/28 00:06:47;;;;;;;8.30;3.60;;;;;;;-0.16;75.74;99795.06;104847;1267;73057;-28
2024/01/28 00:16:57;;;;;;;12.50;5.70;;;;;;;0.02;75.40;99804.98;102759;1295;600098;-26
2024/01/28 00:19:24;;;;;;;5.20;2.80;;;;;;;-0.09;76.01;99808.86;105062;1269;61272;-27
2024/01/28 00:21:52;;;;;;;10.50;5.80;;;;;;;-0.15;76.09;99817.20;104841;1270;61141;-28
2024/01/28 00:24:21;;;;;;;10.10;5.90;;;;;;;-0.47;77.40;99818.14;105384;1264;72213;-28
2024/01/28 00:26:50;;;;;;;10.10;5.50;;;;;;;-0.31;77.80;99826.12;105440;1263;73157;-28
2024/01/28 00:29:18;;;;;;;7.60;4.60;;;;;;;0.35;75.13;99828.40;105561;1263;71442;-28
2024/01/28 00:38:39;;;;;;;7.00;3.80;;;;;;;0.08;75.56;99838.15;102716;1292;599939;-25
2024/01/28 00:41:07;;;;;;;12.10;6.00;;;;;;;0.08;75.39;99842.92;105060;1269;61255;-27
2024/01/28 00:43:34;;;;;;;9.40;4.40;;;;;;;-0.17;76.05;99846.27;105053;1268;61135;-29
2024/01/28 00:46:02;;;;;;;9.30;5.20;;;;;;;-0.36;77.27;99842.48;104935;1265;71013;-28
2024/01/28 00:48:30;;;;;;;7.80;3.90;;;;;;;-0.47;77.76;99848.01;105012;1269;74262;-28
2024/01/28 00:57:56;;;;;;;6.00;4.40;;;;;;;0.42;73.75;99859.14;102735;1294;600736;-27
2024/01/28 01:00:25;;;;;;;7.80;4.20;;;;;;;0.14;74.68;99866.16;105046;1267;61167;-27
2024/01/28 01:02:53;;;;;;;6.90;3.80;;;;;;;-0.12;75.65;99868.02;104887;1267;61065;-27
2024/01/28 01:05:20;;;;;;;7.90;4.80;;;;;;;-0.33;76.47;99874.64;104859;1269;70945;-27
2024/01/28 01:07:48;;;;;;;10.70;5.80;;;;;;;-0.46;77.24;99875.63;104879;1270;73251;-27
2024/01/28 01:10:16;;;;;;;7.40;5.10;;;;;;;-0.46;77.80;99877.49;105043;1267;71369;-27
2024/01/28 01:19:04;;;;;;;6.70;3.50;;;;;;;0.22;74.61;99893.83;102654;1292;600575;-26
2024/01/28 01:27:45;;;;;;;7.80;4.10;;;;;;;-0.48;76.85;99884.38;102667;1297;599973;-28
2024/01/28 01:30:13;;;;;;;6.30;2.90;;;;;;;-0.84;78.04;99887.51;104937;1270;61173;-28
2024/01/28 01:32:41;;;;;;;9.00;4.00;;;;;;;-0.29;76.12;99888.71;104811;1267;61148;-28
2024/01/28 01:35:09;;;;;;;9.60;4.50;;;;;;;0.06;74.66;99890.78;104806;1267;71908;-28
2024/01/28 01:45:17;;;;;;;4.90;3.30;;;;;;;-0.84;77.51;99901.86;102730;1293;598771;-27
2024/01/28 01:47:45;;;;;;;5.90;4.30;;;;;;;-1.00;77.63;99905.05;104895;1269;61142;-28
2024/01/28 01:50:13;;;;;;;9.60;6.30;;;;;;;-1.06;78.01;99910.98;104881;1263;61008;-28
2024/01/28 01:52:41;;;;;;;6.30;4.40;;;;;;;-1.28;78.39;99910.20;104913;1263;72224;-27
2024/01/28 01:55:09;;;;;;;7.90;4.90;;;;;;;-0.78;77.28;99911.45;104934;1263;74297;-28
2024/01/28 01:57:41;;;;;;;8.20;3.70;;;;;;;-0.29;75.03;99917.55;104918;1269;71941;-28
2024/01/28 02:00:14;;;;;;;6.90;4.70;;;;;;;-0.19;74.13;99921.60;104980;1263;146189;-27
2024/01/28 02:10:21;;;;;;;8.80;5.10;;;;;;;-0.97;77.57;99932.46;102719;1293;600102;-27
2024/01/28 02:12:50;;;;;;;8.20;5.00;;;;;;;-1.09;78.15;99934.90;104936;1264;61170;-28
2024/01/28 02:15:17;;;;;;;5.20;2.50;;;;;;;-0.99;78.52;99938.64;104933;1270;61129;-28
2024/01/28 02:17:45;;;;;;;8.50;5.00;;;;;;;-0.44;76.50;99940.41;104849;1271;72242;-28
2024/01/28 02:20:13;;;;;;;8.80;4.80;;;;;;;-0.19;75.42;99940.89;104821;1271;74453;-28
2024/01/28 02:22:40;;;;;;;6.70;3.90;;;;;;;-0.16;75.11;99944.23;104894;1264;71487;-28
2024/01/28 02:25:08;;;;;;;12.10;6.60;;;;;;;-0.26;75.23;99948.55;105054;1267;156359;-28
2024/01/28 02:27:38;;;;;;;9.50;5.40;;;;;;;-0.50;76.71;99949.05;105170;1264;61132;-28
2024/01/28 02:37:44;;;;;;;9.10;4.90;;;;;;;0.13;75.59;99971.73;102733;1289;599367;-26
2024/01/28 02:40:12;;;;;;;12.40;7.10;;;;;;;0.00;75.45;99977.49;105054;1269;61188;-27
2024/01/28 02:42:40;;;;;;;9.00;5.60;;;;;;;-0.68;77.99;99982.35;104983;1265;61043;-28
2024/01/28 02:45:08;;;;;;;7.80;5.30;;;;;;;-0.92;79.95;99987.94;104882;1266;71027;-28
2024/01/28 02:47:36;;;;;;;12.80;7.20;;;;;;;-0.69;79.65;99989.70;104817;1264;74069;-27
2024/01/28 02:50:04;;;;;;;6.80;3.40;;;;;;;-0.93;81.00;99995.46;104788;1267;72740;-28
2024/01/28 02:52:32;;;;;;;6.50;5.40;;;;;;;-0.47;79.18;99995.41;104781;1268;194130;-28
2024/01/28 02:55:00;;;;;;;8.00;5.70;;;;;;;-0.60;79.39;99996.87;105159;1267;61219;-28
2024/01/28 02:57:27;;;;;;;20.90;8.50;;;;;;;-0.27;78.48;100008.82;105139;1263;71048;-28
2024/01/28 02:59:55;;;;;;;13.50;6.90;;;;;;;-0.69;79.70;100016.14;105134;1268;74325;-28
2024/01/28 03:02:23;;;;;;;16.10;7.50;;;;;;;-0.86;80.22;100016.98;105396;1260;71510;-28
2024/01/28 03:04:51;;;;;;;11.50;6.10;;;;;;;-0.73;80.46;100024.23;105405;1260;61141;-28
2024/01/28 03:07:19;;;;;;;9.30;5.00;;;;;;;-0.59;80.06;100023.62;105364;1260;61232;-28
2024/01/28 03:09:46;;;;;;;10.60;6.10;;;;;;;-0.42;79.06;100027.73;105342;1262;71983;-28
2024/01/28 03:12:14;;;;;;;9.00;5.50;;;;;;;-0.46;79.35;100031.70;105300;1258;73109;-28
2024/01/28 03:22:27;;;;;;;8.90;5.20;;;;;;;-1.06;81.54;100054.50;103323;1286;599400;-28
2024/01/28 03:24:54;;;;;;;8.10;5.50;;;;;;;-0.84;81.00;100054.98;105026;1269;61189;-28
2024/01/28 03:27:22;;;;;;;7.50;5.10;;;;;;;-0.55;79.59;100059.88;104836;1264;61170;-28
2024/01/28 03:29:50;;;;;;;2.80;2.30;;;;;;;-0.54;79.41;100061.05;105015;1267;71042;-28
2024/01/28 03:32:17;;;;;;;9.40;5.30;;;;;;;-0.60;79.55;100067.64;104863;1277;74287;-28
2024/01/28 03:34:45;;;;;;;11.50;7.00;;;;;;;-0.79;80.48;100066.81;104886;1266;72706;-28
2024/01/28 03:37:14;;;;;;;10.20;6.60;;;;;;;-1.19;81.98;100069.89;105099;1267;196322;-28
2024/01/28 03:47:19;;;;;;;9.10;5.80;;;;;;;-0.81;79.96;100067.84;102891;1289;599431;-27
2024/01/28 03:49:47;;;;;;;11.80;6.30;;;;;;;-0.78;80.40;100078.04;105097;1269;61177;-27
2024/01/28 03:59:51;;;;;;;7.70;5.90;;;;;;;-0.82;81.06;100087.65;102649;1294;600148;-26
2024/01/28 04:02:19;;;;;;;8.70;5.70;;;;;;;-0.60;79.28;100088.64;104820;1266;61062;-27
2024/01/28 04:04:47;;;;;;;10.00;6.00;;;;;;;-0.41;78.80;100090.84;104788;1271;61250;-28
2024/01/28 04:07:15;;;;;;;14.30;7.90;;;;;;;-0.50;78.52;100093.40;104817;1270;72072;-28
2024/01/28 04:09:42;;;;;;;8.80;6.20;;;;;;;-1.16;80.88;100093.36;105068;1269;73150;-28
2024/01/28 04:19:47;;;;;;;10.10;5.20;;;;;;;-0.25;78.55;100108.27;102745;1292;600062;-26
2024/01/28 04:22:15;;;;;;;17.90;9.50;;;;;;;-0.34;77.69;100113.39;105102;1269;61192;-26
2024/01/28 04:24:43;;;;;;;11.60;6.90;;;;;;;-0.21;77.81;100118.78;105073;1269;61107;-28
2024/01/28 04:27:10;;;;;;;8.30;5.60;;;;;;;-0.89;79.38;100123.24;104931;1265;71005;-28
2024/01/28 04:29:38;;;;;;;7.10;5.10;;;;;;;-0.88;80.08;100128.17;104836;1266;74315;-28
2024/01/28 04:32:06;;;;;;;7.30;4.00;;;;;;;-0.74;78.90;100128.96;104758;1274;71491;-28
2024/01/28 04:34:34;;;;;;;6.80;4.60;;;;;;;-0.69;79.00;100126.99;108608;1266;142300;-26
2024/01/28 04:37:02;;;;;;;6.10;3.90;;;;;;;-0.26;77.97;100132.35;108694;1264;58775;-27
2024/01/28 04:39:29;;;;;;;13.90;4.80;;;;;;;0.01;76.58;100141.39;108717;1263;72319;-26
2024/01/28 04:41:57;;;;;;;13.90;5.20;;;;;;;-0.08;76.41;100142.41;108754;1265;73334;-27
2024/01/28 04:44:24;;;;;;;8.60;5.30;;;;;;;-0.18;76.96;100147.90;108763;1264;72635;-26
2024/01/28 04:46:52;;;;;;;9.00;5.60;;;;;;;-0.58;78.56;100150.34;108716;1266;59256;-26
2024/01/28 04:49:19;;;;;;;10.70;6.20;;;;;;;-0.80;79.53;100154.30;108787;1264;58757;-26
2024/01/28 04:51:47;;;;;;;9.60;5.80;;;;;;;-1.16;80.95;100157.09;108753;1264;73045;-27
2024/01/28 04:54:14;;;;;;;11.30;6.50;;;;;;;-0.44;79.74;100163.23;108770;1264;74316;-27
2024/01/28 04:56:42;;;;;;;13.40;7.10;;;;;;;0.37;76.14;100162.84;108722;1263;71925;-26
2024/01/28 04:59:09;;;;;;;8.70;6.00;;;;;;;0.31;75.18;100164.33;108692;1265;60078;-27
2024/01/28 05:01:37;;;;;;;10.60;6.30;;;;;;;-0.03;75.88;100165.71;108866;1261;58889;-27
2024/01/28 05:04:05;;;;;;;8.60;3.90;;;;;;;-0.70;78.08;100168.81;108884;1260;71840;-27
2024/01/28 05:06:35;;;;;;;8.70;5.00;;;;;;;-0.83;78.94;100171.57;108882;1261;73551;-27
2024/01/28 05:09:03;;;;;;;3.70;2.80;;;;;;;-0.85;79.01;100179.27;108923;1261;71376;-26
2024/01/28 05:11:31;;;;;;;7.10;4.80;;;;;;;-1.16;80.46;100183.34;108957;1260;59268;-26
2024/01/28 05:13:59;;;;;;;5.10;3.60;;;;;;;-1.27;81.50;100183.30;108918;1261;58786;-26
2024/01/28 05:16:27;;;;;;;7.50;4.30;;;;;;;-0.41;78.43;100185.20;108964;1261;73062;-26
2024/01/28 05:18:55;;;;;;;6.10;4.30;;;;;;;-0.28;76.51;100184.95;108958;1260;74322;-27
2024/01/28 05:21:25;;;;;;;7.10;4.50;;;;;;;-0.78;78.09;100190.92;108880;1261;72664;-26
2024/01/28 05:23:53;;;;;;;7.70;4.80;;;;;;;-0.73;78.42;100194.26;108848;1261;58786;-26
2024/01/28 05:26:20;;;;;;;8.10;5.20;;;;;;;-0.85;78.65;100193.95;108938;1260;58764;-26
2024/01/28 05:28:49;;;;;;;12.30;6.20;;;;;;;-1.41;80.53;100192.73;108963;1262;71803;-26
2024/01/28 05:31:16;;;;;;;8.30;5.40;;;;;;;-1.20;80.37;100196.36;109008;1260;73308;-27
2024/01/28 05:33:45;;;;;;;5.60;4.10;;;;;;;-1.44;80.86;100195.15;108864;1260;72677;-27
2024/01/28 05:36:16;;;;;;;5.00;3.60;;;;;;;-1.07;80.18;100199.21;108919;1260;59274;-26
2024/01/28 05:38:46;;;;;;;6.90;4.20;;;;;;;-0.59;77.49;100211.77;108869;1260;60054;-27
2024/01/28 05:41:14;;;;;;;5.20;3.80;;;;;;;-0.61;77.14;100214.02;108933;1260;73021;-27
2024/01/28 05:43:41;;;;;;;9.00;5.60;;;;;;;-0.98;77.48;100214.95;108957;1260;74489;-27
2024/01/28 05:46:09;;;;;;;11.20;6.10;;;;;;;-1.16;78.77;100212.83;108904;1263;71031;-26
2024/01/28 05:48:36;;;;;;;4.80;3.20;;;;;;;-1.10;77.84;100217.34;108941;1259;58882;-27
2024/01/28 05:51:04;;;;;;;6.70;4.40;;;;;;;-1.17;78.70;100222.73;108972;1260;58779;-26
2024/01/28 05:53:31;;;;;;;6.30;4.00;;;;;;;-1.42;79.49;100225.80;108882;1260;73061;-26
2024/01/28 05:55:59;;;;;;;4.30;2.50;;;;;;;-1.37;79.81;100233.72;108879;1260;73716;-26
2024/01/28 05:58:26;;;;;;;8.80;3.80;;;;;;;-0.58;78.62;100242.77;108885;1260;71101;-26
2024/01/28 06:00:54;;;;;;;7.10;4.40;;;;;;;-0.23;75.54;100249.72;108942;1260;58804;-27
2024/01/28 06:03:21;;;;;;;6.60;4.50;;;;;;;-0.52;74.92;100246.80;108954;1259;58937;-27
2024/01/28 06:05:49;;;;;;;3.80;2.90;;;;;;;-0.73;75.72;100253.63;108962;1260;71761;-26
2024/01/28 06:08:16;;;;;;;6.30;3.70;;;;;;;-1.07;76.46;100252.06;108949;1259;74299;-26
2024/01/28 06:10:44;;;;;;;7.10;4.60;;;;;;;-1.27;77.68;100254.38;108910;1260;72642;-27
2024/01/28 06:13:11;;;;;;;5.90;4.20;;;;;;;-1.47;78.69;100262.48;108933;1259;58846;-26
2024/01/28 06:15:39;;;;;;;6.40;4.30;;;;;;;-1.59;79.27;100266.38;108884;1259;60049;-26
2024/01/28 06:18:06;;;;;;;4.80;3.00;;;;;;;-1.73;80.69;100270.11;108928;1259;71783;-26
2024/01/28 06:20:35;;;;;;;9.30;5.40;;;;;;;-1.00;78.25;100273.27;108907;1259;74542;-27
2024/01/28 06:23:03;;;;;;;16.60;8.80;;;;;;;-0.63;76.69;100274.61;108948;1259;72662;-26
2024/01/28 06:25:31;;;;;;;8.40;5.60;;;;;;;-0.87;76.90;100281.79;108934;1259;59321;-27
2024/01/28 06:27:58;;;;;;;8.20;5.50;;;;;;;-1.03;77.40;100287.64;108911;1259;59981;-26
2024/01/28 06:30:27;;;;;;;8.40;4.80;;;;;;;-1.27;78.41;100287.45;108914;1260;73023;-26
2024/01/28 06:32:55;;;;;;;15.30;8.20;;;;;;;-1.54;79.64;100286.91;108893;1260;74308;-26
2024/01/28 06:35:23;;;;;;;5.10;3.70;;;;;;;-1.83;81.01;100288.95;108840;1263;71406;-26
2024/01/28 06:37:50;;;;;;;8.60;5.10;;;;;;;-0.86;79.10;100298.12;108844;1260;58784;-27
2024/01/28 06:40:17;;;;;;;11.60;6.30;;;;;;;-0.70;77.07;100295.02;108862;1260;58793;-27
2024/01/28 06:42:45;;;;;;;9.60;5.30;;;;;;;-0.50;76.65;100300.68;108863;1265;73057;-27
2024/01/28 06:45:13;;;;;;;5.00;3.60;;;;;;;-0.59;75.71;100303.89;108906;1260;73058;-26
2024/01/28 06:47:40;;;;;;;6.50;4.00;;;;;;;-1.48;77.99;100306.93;108886;1260;71432;-26
2024/01/28 06:50:08;;;;;;;10.50;6.10;;;;;;;-1.88;80.50;100310.79;108895;1260;59243;-26
2024/01/28 06:52:36;;;;;;;11.80;7.00;;;;;;;-2.18;81.75;100308.86;108947;1260;60059;-26
2024/01/28 06:55:05;;;;;;;19.60;11.10;;;;;;;-1.93;82.03;100315.09;108910;1260;73079;-26
2024/01/28 06:57:33;;;;;;;30.50;12.10;;;;;;;-1.07;79.81;100319.21;108824;1263;74330;-26
2024/01/28 07:00:00;;;;;;;12.90;6.50;;;;;;;-0.64;76.95;100323.92;108841;1263;71673;-26
2024/01/28 07:02:28;;;;;;;11.90;6.60;;;;;;;-0.59;76.90;100327.61;108908;1260;59730;-26
2024/01/28 07:04:56;;;;;;;11.80;6.60;;;;;;;-0.88;77.95;100329.55;108929;1261;59159;-27
2024/01/28 07:07:23;;;;;;;13.10;8.10;;;;;;;-1.27;79.03;100334.65;108865;1261;73021;-26
2024/01/28 07:09:51;;;;;;;9.80;6.30;;;;;;;-1.78;81.03;100336.21;108832;1260;74378;-26
2024/01/28 07:12:18;;;;;;;3.70;2.60;;;;;;;-1.59;80.64;100344.19;108889;1261;72675;-27
2024/01/28 07:14:46;;;;;;;9.90;5.30;;;;;;;-1.78;80.93;100346.42;108844;1261;59262;-26
2024/01/28 07:17:13;;;;;;;17.70;9.90;;;;;;;-1.28;80.44;100351.19;109057;1256;58827;-26
2024/01/28 07:19:41;;;;;;;11.70;7.00;;;;;;;-1.24;79.25;100354.88;109074;1257;71138;-26
2024/01/28 07:22:11;;;;;;;12.00;7.80;;;;;;;-1.25;78.74;100355.24;109079;1256;74328;-26
2024/01/28 07:24:39;;;;;;;13.00;7.50;;;;;;;-1.77;80.77;100354.94;109087;1256;71469;-26
2024/01/28 07:27:07;;;;;;;25.40;12.20;;;;;;;-1.82;81.33;100353.81;109106;1258;59250;-26
2024/01/28 07:29:34;;;;;;;8.00;3.70;;;;;;;-1.90;81.21;100350.97;109039;1256;60129;-27
2024/01/28 07:32:02;;;;;;;11.40;6.50;;;;;;;-1.76;80.86;100350.49;109068;1257;73080;-26
2024/01/28 07:34:29;;;;;;;14.60;8.50;;;;;;;-1.84;80.84;100352.98;109011;1257;74298;-26
2024/01/28 07:36:58;;;;;;;8.30;5.40;;;;;;;-1.82;80.52;100355.50;108990;1257;72677;-26
2024/01/28 07:39:28;;;;;;;6.40;5.00;;;;;;;-1.22;78.21;100354.70;109065;1258;58756;-26
2024/01/28 07:41:58;;;;;;;11.90;7.40;;;;;;;-0.79;76.65;100358.59;109082;1257;59744;-26
2024/01/28 07:44:26;;;;;;;6.00;3.80;;;;;;;-1.11;77.00;100355.08;109029;1257;71791;-27
2024/01/28 07:46:53;;;;;;;8.10;5.10;;;;;;;-1.07;76.68;100355.70;109120;1257;73317;-26
2024/01/28 07:49:21;;;;;;;8.10;5.80;;;;;;;-1.15;76.87;100358.70;108997;1258;72662;-27
2024/01/28 07:51:49;;;;;;;12.00;6.90;;;;;;;-1.92;79.66;100353.38;109015;1257;58767;-26
2024/01/28 07:54:18;;;;;;;50.80;27.20;;;;;;;-2.04;81.09;100355.52;109028;1258;58820;-26
2024/01/28 07:56:46;;;;;;;8.80;5.20;;;;;;;-1.69;79.83;100362.02;109067;1257;73031;-26
2024/01/28 07:59:13;;;;;;;10.00;6.00;;;;;;;-1.07;77.39;100366.10;109062;1257;73383;-27
2024/01/28 08:01:40;;;;;;;32.70;15.30;;;;;;;-0.77;75.45;100373.20;109011;1257;72668;-26
2024/01/28 08:04:08;;;;;;;33.60;18.00;;;;;;;-0.69;75.23;100378.91;109061;1257;58875;-26
2024/01/28 08:06:36;;;;;;;20.90;10.80;;;;;;;-0.67;75.29;100381.77;109099;1257;59146;-26
2024/01/28 08:09:03;;;;;;;45.20;24.30;;;;;;;-0.74;75.73;100384.44;109025;1257;73054;-26
2024/01/28 08:11:31;;;;;;;131.00;68.20;;;;;;;-0.93;76.32;100388.95;109063;1257;73152;-27
2024/01/28 08:13:58;;;;;;;17.90;9.30;;;;;;;-1.04;76.25;100396.92;109013;1257;72690;-26
2024/01/28 08:16:25;;;;;;;25.50;13.40;;;;;;;-1.27;77.18;100401.79;109034;1257;58800;-26
2024/01/28 08:18:54;;;;;;;30.30;14.30;;;;;;;-1.44;78.03;100404.52;109072;1257;60014;-26
2024/01/28 08:21:21;;;;;;;31.60;13.80;;;;;;;-0.89;77.36;100413.61;109043;1262;72998;-26
2024/01/28 08:23:48;;;;;;;111.20;62.90;;;;;;;-0.24;74.37;100414.96;109016;1257;74280;-26
2024/01/28 08:26:16;;;;;;;124.20;76.10;;;;;;;-0.23;73.53;100413.92;109018;1262;72652;-27
2024/01/28 08:28:43;;;;;;;31.70;19.20;;;;;;;-0.43;73.37;100415.58;108996;1260;59920;-26
2024/01/28 08:31:12;;;;;;;21.90;10.90;;;;;;;-0.81;74.73;100414.87;108969;1259;60023;-26
2024/01/28 08:33:39;;;;;;;36.20;20.80;;;;;;;-1.18;76.46;100413.95;108964;1261;73804;-26
2024/01/28 08:36:07;;;;;;;311.50;154.90;;;;;;;-1.22;77.14;100419.79;108989;1259;73058;-26
2024/01/28 08:38:35;;;;;;;63.50;29.50;;;;;;;-1.16;77.18;100423.99;108972;1259;72646;-29
2024/01/28 08:41:03;;;;;;;707.20;400.50;;;;;;;-1.34;76.89;100426.20;108950;1259;58785;-26
2024/01/28 08:43:31;;;;;;;154.70;72.40;;;;;;;-1.53;77.94;100430.33;108967;1260;60084;-26
2024/01/28 08:46:01;;;;;;;10.90;6.50;;;;;;;-0.89;75.68;100433.40;108973;1259;73834;-26
2024/01/28 08:48:29;;;;;;;14.30;8.50;;;;;;;-0.96;74.14;100439.28;108894;1260;73275;-26
2024/01/28 08:50:57;;;;;;;7.70;5.00;;;;;;;-0.96;73.73;100438.42;108962;1260;71442;-26
2024/01/28 08:53:24;;;;;;;5.70;3.30;;;;;;;-1.28;75.23;100442.17;108990;1260;59315;-27
2024/01/28 08:55:52;;;;;;;7.90;4.00;;;;;;;-1.31;75.39;100443.74;108933;1262;59045;-26
2024/01/28 08:58:19;;;;;;;82.20;42.20;;;;;;;-1.43;76.42;100448.12;109027;1259;72754;-26
2024/01/28 09:00:47;;;;;;;43.10;20.60;;;;;;;-1.44;76.42;100446.77;108991;1259;76830;-26
2024/01/28 09:03:14;;;;;;;269.50;126.30;;;;;;;-1.33;77.10;100447.01;108982;1259;71047;-26
2024/01/28 09:05:42;;;;;;;65.10;29.80;;;;;;;-1.36;77.55;100451.11;109018;1260;58836;-26
2024/01/28 09:08:10;;;;;;;14.70;6.30;;;;;;;-1.38;76.99;100450.63;108988;1260;58794;-26
2024/01/28 09:10:37;;;;;;;6.50;4.20;;;;;;;-0.90;74.80;100452.34;108955;1260;73886;-26
2024/01/28 09:13:05;;;;;;;10.40;5.50;;;;;;;-0.27;73.87;100455.30;108981;1259;73180;-26
2024/01/28 09:15:32;;;;;;;10.40;6.50;;;;;;;-0.20;72.48;100460.30;108935;1265;72733;-26
2024/01/28 09:18:00;;;;;;;11.00;5.80;;;;;;;-0.17;72.65;100458.73;108977;1258;58819;-26
2024/01/28 09:20:27;;;;;;;8.80;4.90;;;;;;;-0.04;71.42;100462.14;108986;1263;58775;-27
2024/01/28 09:22:55;;;;;;;9.40;5.70;;;;;;;-0.10;71.54;100467.34;109052;1259;73809;-26
2024/01/28 09:25:22;;;;;;;10.50;6.90;;;;;;;-0.68;73.66;100465.36;108955;1260;74344;-26
2024/01/28 09:27:52;;;;;;;11.70;6.00;;;;;;;-0.76;74.11;100463.77;108965;1262;71676;-26
2024/01/28 09:30:19;;;;;;;10.90;6.40;;;;;;;-0.59;75.13;100464.75;108940;1264;59232;-26
2024/01/28 09:32:47;;;;;;;12.40;6.00;;;;;;;-0.31;73.72;100461.83;108980;1260;60039;-27
2024/01/28 09:35:16;;;;;;;8.20;4.40;;;;;;;-0.26;72.79;100459.02;108944;1260;73934;-26
2024/01/28 09:37:43;;;;;;;5.60;4.20;;;;;;;-0.57;73.23;100462.52;108959;1260;73310;-26
2024/01/28 09:40:14;;;;;;;9.40;3.70;;;;;;;0.24;71.99;100466.11;108876;1259;72811;-26
2024/01/28 09:42:56;;;;;;;10.80;6.80;;;;;;;0.76;69.61;100466.27;108962;1261;59113;-26
2024/01/28 09:45:25;;;;;;;23.60;10.80;;;;;;;0.43;69.95;100472.66;108945;1260;60006;-26
2024/01/28 09:47:53;;;;;;;57.70;24.50;;;;;;;-0.06;71.48;100475.80;108878;1260;73870;-26
2024/01/28 09:50:21;;;;;;;40.40;15.10;;;;;;;-0.48;72.29;100477.08;108855;1260;73088;-26
2024/01/28 09:52:49;;;;;;;144.80;58.50;;;;;;;-1.07;73.71;100480.14;108959;1261;71454;-26
2024/01/28 09:55:16;;;;;;;51.80;20.40;;;;;;;-0.77;74.05;100479.13;108946;1259;59772;-26
2024/01/28 09:57:44;;;;;;;51.30;20.50;;;;;;;-0.73;74.33;100487.78;109014;1259;60005;-26
2024/01/28 10:00:12;;;;;;;351.00;187.00;;;;;;;-0.78;74.05;100494.32;108944;1261;73860;-26
2024/01/28 10:02:41;;;;;;;41.10;23.20;;;;;;;-0.53;74.28;100499.98;108880;1260;74513;-26
2024/01/28 10:05:14;;;;;;;38.00;22.10;;;;;;;-0.81;75.39;100505.61;108914;1261;71519;-26
2024/01/28 10:07:50;;;;;;;59.50;22.70;;;;;;;-0.80;75.05;100507.80;109006;1260;60843;-26
2024/01/28 10:10:18;;;;;;;13.60;7.20;;;;;;;0.11;72.24;100507.84;108894;1259;60043;-27
2024/01/28 10:12:47;;;;;;;12.50;7.70;;;;;;;0.18;71.52;100505.84;108980;1260;73832;-26
2024/01/28 10:15:16;;;;;;;10.00;5.60;;;;;;;0.11;71.10;100508.00;108926;1259;73369;-26
2024/01/28 10:17:48;;;;;;;9.90;5.90;;;;;;;0.15;70.85;100504.69;108887;1259;72429;-26
2024/01/28 10:20:24;;;;;;;6.60;3.30;;;;;;;-0.57;72.86;100508.39;108889;1259;59308;-26
2024/01/28 10:22:53;;;;;;;8.90;5.90;;;;;;;-0.34;73.15;100517.16;108959;1258;59227;-27
2024/01/28 10:25:22;;;;;;;5.80;3.70;;;;;;;-0.90;74.04;100511.16;108979;1263;72917;-26
2024/01/28 10:27:50;;;;;;;6.50;3.60;;;;;;;-0.91;74.15;100512.03;108996;1259;74457;-26
2024/01/28 10:30:22;;;;;;;7.00;4.40;;;;;;;-0.82;74.89;100515.34;108953;1260;70408;-26
2024/01/28 10:32:50;;;;;;;4.40;2.60;;;;;;;-0.85;75.02;100514.84;108946;1260;58837;-26
2024/01/28 10:35:17;;;;;;;7.60;5.30;;;;;;;-0.49;73.68;100516.32;108976;1260;58815;-27
2024/01/28 10:37:50;;;;;;;6.80;3.50;;;;;;;-0.42;74.11;100521.17;108965;1260;73923;-27
2024/01/28 10:40:17;;;;;;;5.90;4.40;;;;;;;-0.55;73.62;100520.48;108862;1259;74296;-26
2024/01/28 10:42:47;;;;;;;5.30;3.70;;;;;;;-0.64;73.41;100522.13;108899;1260;72646;-27
2024/01/28 10:45:17;;;;;;;4.00;2.70;;;;;;;-0.58;73.05;100524.63;108782;1260;58832;-27
2024/01/28 10:47:50;;;;;;;5.60;3.90;;;;;;;-1.01;74.64;100522.86;108838;1259;58781;-28
2024/01/28 10:50:18;;;;;;;8.60;5.20;;;;;;;-0.99;74.26;100521.30;108894;1261;73876;-27
2024/01/28 10:52:47;;;;;;;4.20;3.30;;;;;;;-1.00;75.31;100526.95;108950;1260;74322;-27
2024/01/28 10:55:17;;;;;;;7.40;4.10;;;;;;;-0.97;75.73;100529.64;108888;1261;72955;-26
2024/01/28 10:57:45;;;;;;;6.70;4.80;;;;;;;-0.42;72.90;100527.32;109061;1259;59408;-27
2024/01/28 11:00:13;;;;;;;6.90;4.30;;;;;;;-0.26;71.91;100529.02;108980;1260;60022;-26
2024/01/28 11:02:41;;;;;;;3.40;2.40;;;;;;;-0.52;72.54;100533.24;108885;1259;73844;-27
2024/01/28 11:05:08;;;;;;;5.20;3.20;;;;;;;-0.34;72.08;100536.10;108983;1259;74322;-27
2024/01/28 11:07:36;;;;;;;132.60;74.20;;;;;;;-0.29;71.56;100544.40;108882;1260;74165;-26
2024/01/28 11:10:08;;;;;;;81.80;44.90;;;;;;;-0.79;72.42;100542.59;108920;1259;59340;-27
2024/01/28 11:12:36;;;;;;;15.10;8.60;;;;;;;-0.76;73.76;100543.92;108989;1259;60304;-26
2024/01/28 11:15:06;;;;;;;11.00;5.60;;;;;;;-0.65;73.88;100545.86;108942;1259;75955;-26
2024/01/28 11:17:34;;;;;;;22.10;10.90;;;;;;;-0.51;74.62;100545.20;108791;1261;74337;-27
2024/01/28 11:20:05;;;;;;;10.60;6.40;;;;;;;-0.44;73.33;100546.30;108784;1260;71711;-26
2024/01/28 11:22:49;;;;;;;4.10;3.30;;;;;;;-0.32;72.41;100537.11;108865;1260;59790;-26
2024/01/28 11:25:26;;;;;;;;;;;;;;;-0.13;71.56;100537.02;108902;1259;62225;-27
2024/01/28 11:27:58;;;;;;;6.40;3.70;;;;;;;-0.28;71.95;100534.31;108938;1261;73878;-26
2024/01/28 11:30:28;;;;;;;2.90;2.40;;;;;;;0.01;71.13;100533.26;108955;1260;76683;-26
2024/01/28 11:33:11;;;;;;;5.30;3.50;;;;;;;-0.23;71.69;100536.66;108845;1260;72562;-26
2024/01/28 11:35:45;;;;;;;8.30;5.10;;;;;;;-0.34;72.86;100537.98;108893;1260;59593;-27
2024/01/28 11:38:24;;;;;;;5.60;3.70;;;;;;;-0.37;72.32;100539.55;108891;1259;60144;-26
2024/01/28 11:40:59;;;;;;;7.40;5.10;;;;;;;-0.44;72.90;100537.77;108915;1259;73898;-26
2024/01/28 11:43:30;;;;;;;3.60;3.20;;;;;;;-0.64;72.58;100542.09;108861;1260;74335;-26
2024/01/28 11:46:01;;;;;;;8.80;4.70;;;;;;;-0.47;72.96;100548.04;108782;1260;72929;-26
2024/01/28 11:48:31;;;;;;;6.50;3.60;;;;;;;0.28;71.41;100551.64;108809;1260;58810;-27
2024/01/28 11:51:01;;;;;;;6.60;4.00;;;;;;;0.64;69.13;100556.91;108835;1261;61417;-26
2024/01/28 11:53:33;;;;;;;9.90;5.80;;;;;;;0.20;69.87;100564.93;108837;1260;75394;-26
2024/01/28 11:56:07;;;;;;;11.50;6.90;;;;;;;0.14;69.35;100568.61;108877;1260;72149;-26
2024/01/28 11:58:36;;;;;;;5.70;3.30;;;;;;;-0.20;70.91;100571.27;108848;1260;72737;-27
2024/01/28 12:01:07;;;;;;;14.10;7.90;;;;;;;-0.72;73.02;100577.13;108769;1260;59639;-26
2024/01/28 12:03:37;;;;;;;10.30;6.40;;;;;;;-0.78;73.50;100572.08;108818;1260;58880;-26
2024/01/28 12:06:07;;;;;;;8.40;5.00;;;;;;;-0.86;73.81;100573.17;108919;1260;74782;-27
2024/01/28 12:08:41;;;;;;;14.50;7.50;;;;;;;-0.55;72.90;100578.48;108783;1260;75063;-26
2024/01/28 12:11:16;;;;;;;11.40;6.70;;;;;;;0.40;70.01;100584.63;108839;1259;71213;-27
2024/01/28 12:13:45;;;;;;;11.30;7.30;;;;;;;0.26;69.80;100582.27;108822;1260;59239;-26
2024/01/28 12:16:16;;;;;;;17.20;10.70;;;;;;;0.54;68.64;100584.08;108833;1263;58749;-26
2024/01/28 12:18:47;;;;;;;14.90;8.90;;;;;;;0.27;69.32;100581.39;108951;1260;73834;-26
2024/01/28 12:21:21;;;;;;;9.60;5.80;;;;;;;-0.31;71.26;100579.59;108860;1260;75884;-26
2024/01/28 12:24:02;;;;;;;29.40;21.50;;;;;;;-0.83;72.38;100577.23;108845;1260;72738;-26
2024/01/28 12:26:35;;;;;;;10.70;5.50;;;;;;;-0.70;73.75;100588.05;108798;1259;58914;-26
2024/01/28 12:29:04;;;;;;;;;;;;;;;-0.44;73.17;100585.70;108799;1259;61015;-26
2024/01/28 12:38:32;;;;;;;15.90;9.80;;;;;;;0.22;70.64;100596.67;102825;1290;600204;-27
2024/01/28 12:40:59;;;;;;;10.40;5.70;;;;;;;0.09;70.15;100602.47;105076;1269;61109;-27
2024/01/28 12:43:27;;;;;;;126.50;74.60;;;;;;;-0.18;70.62;100605.89;105057;1269;61390;-28
2024/01/28 12:45:55;;;;;;;44.00;26.30;;;;;;;-0.70;72.22;100606.28;105040;1269;72173;-27
2024/01/28 12:48:23;;;;;;;49.50;28.20;;;;;;;-0.56;72.30;100606.14;105039;1264;73101;-27
2024/01/28 12:50:51;;;;;;;9.50;6.80;;;;;;;-0.41;72.59;100605.31;105081;1266;71104;-28
2024/01/28 12:53:19;;;;;;;7.80;5.70;;;;;;;-0.52;73.10;100605.59;105058;1263;162511;-27
2024/01/28 12:55:47;;;;;;;7.90;4.80;;;;;;;-0.34;72.67;100605.90;105220;1266;62286;-27